LIRN/NAP METAR and TAF weather

Enter ICAO airport designator
Station Type Date Time Source
LIRN METAR 2019/10/23 14:20 UTC NOAA

LIRN 231420Z 21006KT 180V240 CAVOK 25/15 Q1017 NOSIG


Station Type Date Time Source
LIRN Decoded METAR 2019/10/23 14:20 UTC NOAA

Napoli / Capodichino, Italy (LIRN) 40-51N 014-18E 72M
Oct 23, 2019 - 10:20 AM EDT / 2019.10.23 1420 UTC
Wind: from the SSW (210 degrees) at 7 MPH (6 KT) (direction variable):0
Visibility: greater than 7 mile(s):0
Temperature: 77 F (25 C)
Dew Point: 59 F (15 C)
Relative Humidity: 53%
Pressure (altimeter): 30.03 in. Hg (1017 hPa)
ob: LIRN 231420Z 21006KT 180V240 CAVOK 25/15 Q1017 NOSIG
cycle: 14

Station Type Date Time Source
LIRN TAF 2019/10/23 12:22 UTC NOAA

TAF LIRN 231100Z 2312/2412 VRB06KT CAVOK

Example: see airport list